Upstream stations:
Downstream station:
SHEF ID: BRIO2 Canadian River at Bridgeport, OK
STATION TYPE:
Regulating: Stage = 15.00, Flow = 8545
STAGE RIV-FLOW
ft cfs
Ccp-Rev Ccp-Rev
(US/Central)
06/04 00:00 12.59 2176
06/04 01:00 12.57 2146
06/04 02:00 12.56 2132
06/04 03:00 12.54 2103
06/04 04:00 12.53 2089
06/04 05:00 12.51 2060
06/04 06:00 12.57 2146
06/04 07:00 13.03 2891
06/04 08:00 13.15 3111
06/04 09:00 13.09 2999
06/04 10:00 13.01 2855
06/04 11:00 12.96 2768
06/04 12:00 12.90 2665
06/04 13:00 12.90 2665
06/04 14:00 12.86 2598
06/04 15:00 12.86 2598
06/04 16:00 12.86 2598
06/04 17:00 12.84 2565
06/04 18:00 12.83 2548
06/04 19:00 12.80 2500
06/04 20:00 12.70 2341
06/04 21:00 12.64 2250
06/04 22:00 10.86 578
06/04 23:00 ---- ----